createdAt,value
2022-11-22T00:00:48.307Z,1.80
2022-11-22T00:03:20.260Z,1.80
2022-11-22T00:05:48.239Z,1.70
2022-11-22T00:08:15.792Z,1.70
2022-11-22T00:10:43.929Z,1.70
2022-11-22T00:13:11.517Z,1.70
2022-11-22T00:15:39.615Z,1.70
2022-11-22T00:18:07.189Z,1.60
2022-11-22T00:20:36.442Z,1.70
2022-11-22T00:23:04.518Z,1.70
2022-11-22T00:25:33.074Z,1.60
2022-11-22T00:28:00.682Z,1.70
2022-11-22T00:30:28.828Z,1.70
2022-11-22T00:32:56.921Z,1.70
2022-11-22T00:35:25.150Z,1.70
2022-11-22T00:37:52.948Z,1.70
2022-11-22T00:40:21.450Z,1.70
2022-11-22T00:42:49.112Z,1.70
2022-11-22T00:45:18.557Z,1.70
2022-11-22T00:47:46.303Z,1.70
2022-11-22T00:50:14.373Z,1.80
2022-11-22T00:52:42.080Z,1.70
2022-11-22T00:55:10.292Z,1.70
2022-11-22T00:57:38.281Z,1.70
2022-11-22T01:00:07.522Z,1.70
2022-11-22T01:02:35.855Z,1.60
2022-11-22T01:05:04.221Z,1.60
2022-11-22T01:07:32.482Z,1.60
2022-11-22T01:10:00.563Z,1.70
2022-11-22T01:12:28.199Z,1.70
2022-11-22T01:14:56.473Z,1.70
2022-11-22T01:17:24.160Z,1.80
2022-11-22T01:19:52.300Z,1.70
2022-11-22T01:22:20.942Z,1.60
2022-11-22T01:24:49.081Z,1.60
2022-11-22T01:27:17.001Z,1.60
2022-11-22T01:29:45.952Z,1.60
2022-11-22T01:32:13.605Z,1.60
2022-11-22T01:34:41.625Z,1.60
2022-11-22T01:37:09.743Z,1.60
2022-11-22T01:39:37.774Z,1.60
2022-11-22T01:42:05.215Z,1.60
2022-11-22T01:44:33.639Z,1.60
2022-11-22T01:47:27.466Z,1.60
2022-11-22T01:50:06.760Z,1.60
2022-11-22T01:52:35.000Z,1.60
2022-11-22T01:55:12.716Z,1.70
2022-11-22T01:57:42.184Z,1.70
2022-11-22T02:00:14.194Z,1.60
2022-11-22T02:02:41.695Z,1.60
2022-11-22T02:05:15.234Z,1.60
2022-11-22T02:07:55.359Z,1.60
2022-11-22T02:10:25.478Z,1.60
2022-11-22T02:12:54.475Z,1.60
2022-11-22T02:15:22.087Z,1.50
2022-11-22T02:17:49.224Z,1.50
2022-11-22T02:20:19.401Z,1.50
2022-11-22T02:22:52.762Z,1.60
2022-11-22T02:25:22.979Z,1.60
2022-11-22T02:27:50.895Z,1.70
2022-11-22T02:30:19.326Z,1.70
2022-11-22T02:32:46.523Z,1.70
2022-11-22T02:35:24.822Z,1.70
2022-11-22T02:37:58.116Z,1.60
2022-11-22T02:40:28.045Z,1.60
2022-11-22T02:43:05.280Z,1.60
2022-11-22T02:45:33.639Z,1.60
2022-11-22T02:48:06.996Z,1.60
2022-11-22T02:50:37.165Z,1.50
2022-11-22T02:53:06.648Z,1.50
2022-11-22T02:55:34.612Z,1.50
2022-11-22T02:58:01.757Z,1.60
2022-11-22T03:00:29.188Z,1.60
2022-11-22T03:02:56.298Z,1.60
2022-11-22T03:05:23.933Z,1.60
2022-11-22T03:07:51.533Z,1.60
2022-11-22T03:10:19.147Z,1.60
2022-11-22T03:12:46.362Z,1.70
2022-11-22T03:15:13.872Z,1.70
2022-11-22T03:17:40.974Z,1.70
2022-11-22T03:20:09.046Z,1.70
2022-11-22T03:22:36.562Z,1.70
2022-11-22T03:25:04.442Z,1.80
2022-11-22T03:27:31.773Z,1.70
2022-11-22T03:30:01.740Z,1.60
2022-11-22T03:32:28.939Z,1.60
2022-11-22T03:34:56.972Z,1.60
2022-11-22T03:37:24.262Z,1.50
2022-11-22T03:39:51.803Z,1.50
2022-11-22T03:42:21.915Z,1.50
2022-11-22T03:44:50.080Z,1.50
2022-11-22T03:47:17.340Z,1.50
2022-11-22T03:49:44.863Z,1.50
2022-11-22T03:52:12.187Z,1.50
2022-11-22T03:54:39.721Z,1.50
2022-11-22T03:57:07.669Z,1.50
2022-11-22T03:59:35.197Z,1.50
2022-11-22T04:02:02.329Z,1.50
2022-11-22T04:04:31.105Z,1.50
2022-11-22T04:06:58.256Z,1.50
2022-11-22T04:09:26.340Z,1.50
2022-11-22T04:11:56.437Z,1.50
2022-11-22T04:14:42.462Z,1.50
2022-11-22T04:17:13.731Z,1.50
2022-11-22T04:20:03.839Z,1.50
2022-11-22T04:22:31.146Z,1.50
2022-11-22T04:25:14.105Z,1.50
2022-11-22T04:27:41.287Z,1.50
2022-11-22T04:30:08.991Z,1.60
2022-11-22T04:32:47.882Z,1.50
2022-11-22T04:35:18.611Z,1.50
2022-11-22T04:37:53.236Z,1.50
2022-11-22T04:40:20.631Z,1.50
2022-11-22T04:43:06.181Z,1.50
2022-11-22T04:45:33.799Z,1.50
2022-11-22T04:48:01.009Z,1.40
2022-11-22T04:50:49.452Z,1.50
2022-11-22T04:53:18.082Z,1.50
2022-11-22T04:55:47.905Z,1.50
2022-11-22T04:58:15.653Z,1.50
2022-11-22T05:00:43.353Z,1.50
2022-11-22T05:03:10.883Z,1.50
2022-11-22T05:05:40.615Z,1.50
2022-11-22T05:08:08.393Z,1.50
2022-11-22T05:10:55.429Z,1.50
2022-11-22T05:13:23.916Z,1.60
2022-11-22T05:15:51.548Z,1.60
2022-11-22T05:18:22.936Z,1.60
2022-11-22T05:20:50.965Z,1.60
2022-11-22T05:23:37.447Z,1.60
2022-11-22T05:26:05.508Z,1.60
2022-11-22T05:28:34.877Z,1.60
2022-11-22T05:31:14.426Z,1.50
2022-11-22T05:33:43.693Z,1.50
2022-11-22T05:36:12.521Z,1.50
2022-11-22T05:38:39.898Z,1.50
2022-11-22T05:41:09.925Z,1.60
2022-11-22T05:43:37.952Z,1.60
2022-11-22T05:46:13.229Z,1.60
2022-11-22T05:48:42.748Z,1.60
2022-11-22T05:51:16.138Z,1.60
2022-11-22T05:53:44.506Z,1.60
2022-11-22T05:56:27.944Z,1.60
2022-11-22T05:58:55.817Z,1.60
2022-11-22T06:01:25.006Z,1.60
2022-11-22T06:03:52.551Z,1.60
2022-11-22T06:06:20.706Z,1.70
2022-11-22T06:08:48.837Z,1.80
2022-11-22T06:11:22.430Z,1.80
2022-11-22T06:13:55.188Z,1.80
2022-11-22T06:16:23.879Z,1.80
2022-11-22T06:18:51.653Z,1.80
2022-11-22T06:21:23.805Z,1.80
2022-11-22T06:23:55.273Z,1.90
2022-11-22T06:26:24.794Z,1.90
2022-11-22T06:28:52.065Z,1.90
2022-11-22T06:31:22.457Z,1.80
2022-11-22T06:33:51.303Z,1.70
2022-11-22T06:36:25.365Z,1.80
2022-11-22T06:38:53.149Z,1.80
2022-11-22T06:41:31.253Z,1.90
2022-11-22T06:44:00.899Z,1.90
2022-11-22T06:46:28.834Z,1.90
2022-11-22T06:48:56.067Z,1.90
2022-11-22T06:51:28.846Z,1.80
2022-11-22T06:53:59.501Z,1.90
2022-11-22T06:56:46.895Z,1.90
2022-11-22T06:59:14.118Z,1.90
2022-11-22T07:01:41.944Z,2.00
2022-11-22T07:04:10.704Z,2.10
2022-11-22T07:06:39.585Z,2.10
2022-11-22T07:09:09.556Z,2.10
2022-11-22T07:11:38.217Z,2.10
2022-11-22T07:14:08.933Z,2.10
2022-11-22T07:16:38.845Z,2.10
2022-11-22T07:19:06.945Z,2.10
2022-11-22T07:21:35.591Z,2.10
2022-11-22T07:24:05.178Z,2.20
2022-11-22T07:26:32.836Z,2.20
2022-11-22T07:29:00.107Z,2.10
2022-11-22T07:31:28.475Z,2.20
2022-11-22T07:33:57.852Z,2.20
2022-11-22T07:36:28.831Z,2.10
2022-11-22T07:38:56.728Z,2.20
2022-11-22T07:41:25.076Z,2.10
2022-11-22T07:43:53.492Z,2.20
2022-11-22T07:46:30.103Z,2.20
2022-11-22T07:49:02.693Z,2.20
2022-11-22T07:51:31.213Z,2.30
2022-11-22T07:53:59.009Z,2.30
2022-11-22T07:56:26.921Z,2.20
2022-11-22T07:58:56.981Z,2.20
2022-11-22T08:01:24.967Z,2.30
2022-11-22T08:03:52.392Z,2.30
2022-11-22T08:06:20.077Z,2.30
2022-11-22T08:08:47.299Z,2.30
2022-11-22T08:11:14.980Z,2.30
2022-11-22T08:13:42.879Z,2.40
2022-11-22T08:16:15.761Z,2.40
2022-11-22T08:18:48.202Z,2.40
2022-11-22T08:21:17.975Z,2.40
2022-11-22T08:23:46.325Z,2.40
2022-11-22T08:26:16.694Z,2.40
2022-11-22T08:28:44.775Z,2.40
2022-11-22T08:31:15.405Z,2.40
2022-11-22T08:33:51.539Z,2.50
2022-11-22T08:36:19.458Z,2.50
2022-11-22T08:38:47.203Z,2.50
2022-11-22T08:41:15.387Z,2.40
2022-11-22T08:43:42.575Z,2.50
2022-11-22T08:46:10.892Z,2.50
2022-11-22T08:48:39.119Z,2.50
2022-11-22T08:51:10.519Z,2.60
2022-11-22T08:53:40.289Z,2.60
2022-11-22T08:56:10.999Z,2.60
2022-11-22T08:58:39.210Z,2.60
2022-11-22T09:01:16.281Z,2.60
2022-11-22T09:03:44.923Z,2.60
2022-11-22T09:09:30.100Z,2.70
2022-11-22T09:11:50.970Z,2.80
2022-11-22T09:14:18.143Z,2.70
2022-11-22T09:16:46.726Z,2.80
2022-11-22T09:19:14.172Z,2.80
2022-11-22T09:21:49.892Z,2.80
2022-11-22T09:24:30.427Z,2.80
2022-11-22T09:27:13.659Z,2.90
2022-11-22T09:29:41.805Z,2.90
2022-11-22T09:32:10.809Z,3.00
2022-11-22T09:34:38.180Z,3.00
2022-11-22T09:37:05.880Z,3.00
2022-11-22T09:39:33.144Z,3.00
2022-11-22T09:42:11.828Z,3.00
2022-11-22T09:44:44.738Z,3.10
2022-11-22T09:47:30.254Z,3.00
2022-11-22T09:50:23.246Z,3.00
2022-11-22T09:52:59.616Z,3.00
2022-11-22T09:55:40.867Z,3.10
2022-11-22T09:58:33.516Z,3.10
2022-11-22T10:01:13.235Z,3.20
2022-11-22T10:04:16.384Z,3.30
2022-11-22T10:06:48.871Z,3.40
2022-11-22T10:09:30.856Z,3.40
2022-11-22T10:12:15.926Z,3.60
2022-11-22T10:15:09.421Z,3.60
2022-11-22T10:18:06.688Z,3.50
2022-11-22T10:20:47.448Z,3.50
2022-11-22T10:23:24.812Z,3.50
2022-11-22T10:26:09.995Z,3.50
2022-11-22T10:29:16.112Z,3.60
2022-11-22T10:32:19.097Z,3.70
2022-11-22T10:35:20.783Z,3.80
2022-11-22T10:38:19.428Z,3.70
2022-11-22T10:41:03.795Z,3.90
2022-11-22T10:44:18.228Z,4.10
2022-11-22T10:46:57.839Z,4.20
2022-11-22T10:49:40.680Z,4.30
2022-11-22T10:52:28.641Z,4.30
2022-11-22T10:55:12.964Z,4.30
2022-11-22T10:58:27.273Z,4.40
2022-11-22T11:01:27.408Z,4.40
2022-11-22T11:04:02.296Z,4.40
2022-11-22T11:10:10.738Z,4.40
2022-11-22T11:13:01.763Z,4.50
2022-11-22T11:15:55.772Z,4.50
2022-11-22T11:18:46.177Z,4.50
2022-11-22T11:21:16.615Z,4.50
2022-11-22T11:23:51.532Z,4.50
2022-11-22T11:26:27.284Z,4.50
2022-11-22T11:32:20.057Z,4.50
2022-11-22T11:35:08.869Z,4.50
2022-11-22T11:37:41.100Z,4.60
2022-11-22T11:40:38.929Z,4.70
2022-11-22T11:43:23.931Z,4.70
2022-11-22T11:45:58.969Z,4.60
2022-11-22T11:48:39.231Z,4.60
2022-11-22T12:05:28.763Z,4.70
2022-11-22T12:08:05.309Z,4.40
2022-11-22T12:11:00.211Z,4.30
2022-11-22T12:13:58.107Z,4.20
2022-11-22T12:16:50.069Z,4.20
2022-11-22T12:19:32.533Z,4.10
2022-11-22T12:22:52.730Z,4.00
2022-11-22T12:25:33.208Z,4.00
2022-11-22T12:28:19.006Z,3.90
2022-11-22T12:31:02.008Z,3.80
2022-11-22T12:33:47.295Z,3.70
2022-11-22T12:36:33.092Z,3.70
2022-11-22T12:39:07.433Z,3.70
2022-11-22T12:41:44.229Z,3.80
2022-11-22T12:44:24.049Z,3.70
2022-11-22T12:47:03.013Z,3.80
2022-11-22T12:49:56.733Z,3.80
2022-11-22T12:52:44.765Z,4.00
2022-11-22T12:55:29.331Z,4.00
2022-11-22T12:58:20.225Z,4.00
2022-11-22T13:01:08.110Z,4.10
2022-11-22T13:03:45.160Z,4.00
2022-11-22T13:06:17.382Z,3.90
2022-11-22T13:09:03.483Z,3.90
2022-11-22T13:11:49.799Z,4.00
2022-11-22T13:14:28.321Z,3.90
2022-11-22T13:16:55.729Z,3.80
2022-11-22T13:19:26.623Z,3.80
2022-11-22T13:22:12.953Z,3.80
2022-11-22T13:25:04.856Z,3.70
2022-11-22T13:27:35.994Z,3.70
2022-11-22T13:30:04.939Z,3.70
2022-11-22T13:32:34.718Z,3.60
2022-11-22T13:35:25.791Z,3.50
2022-11-22T13:37:56.658Z,3.60
2022-11-22T13:40:28.639Z,3.50
2022-11-22T13:43:19.617Z,3.50
2022-11-22T13:46:06.765Z,3.50
2022-11-22T13:48:54.708Z,3.50
2022-11-22T13:51:50.184Z,3.30
2022-11-22T13:54:35.995Z,3.40
2022-11-22T13:57:23.928Z,3.40
2022-11-22T14:00:12.614Z,3.40
2022-11-22T14:02:55.189Z,3.40
2022-11-22T14:05:39.678Z,3.30
2022-11-22T14:08:37.476Z,3.30
2022-11-22T14:11:29.981Z,3.30
2022-11-22T14:14:38.713Z,3.30
2022-11-22T14:17:38.583Z,3.20
2022-11-22T14:20:50.732Z,3.30
2022-11-22T15:59:43.177Z,2.40
2022-11-22T16:02:20.750Z,2.30
2022-11-22T16:06:07.201Z,2.30
2022-11-22T16:07:57.882Z,2.30
2022-11-22T16:10:39.254Z,2.30
2022-11-22T16:13:21.799Z,2.40
2022-11-22T16:16:11.627Z,2.40
2022-11-22T16:18:48.622Z,2.40
2022-11-22T16:21:16.142Z,2.40
2022-11-22T16:23:45.439Z,2.40
2022-11-22T16:26:36.832Z,2.30
2022-11-22T16:29:22.885Z,2.30
2022-11-22T16:31:50.456Z,2.30
2022-11-22T16:34:17.580Z,2.30
2022-11-22T16:36:46.114Z,2.30
2022-11-22T16:39:13.779Z,2.30
2022-11-22T16:41:41.319Z,2.30
2022-11-22T16:44:13.721Z,2.30
2022-11-22T16:46:41.469Z,2.30
2022-11-22T16:49:20.354Z,2.30
2022-11-22T16:51:50.235Z,2.20
2022-11-22T16:54:21.636Z,2.20
2022-11-22T16:56:49.339Z,2.10
2022-11-22T16:59:16.735Z,2.00
2022-11-22T17:01:44.605Z,2.00
2022-11-22T17:04:35.479Z,2.10
2022-11-22T17:07:14.720Z,2.10
2022-11-22T17:09:43.134Z,2.10
2022-11-22T17:12:34.136Z,2.20
2022-11-22T17:15:02.250Z,2.20
2022-11-22T17:17:29.897Z,2.10
2022-11-22T17:19:58.238Z,2.10
2022-11-22T17:22:26.559Z,2.10
2022-11-22T17:24:53.818Z,2.00
2022-11-22T17:27:21.236Z,2.00
2022-11-22T17:29:50.574Z,2.00
2022-11-22T17:32:18.868Z,2.00
2022-11-22T17:34:46.071Z,2.00
2022-11-22T17:37:14.028Z,2.00
2022-11-22T17:39:41.498Z,2.00
2022-11-22T17:42:09.041Z,2.00
2022-11-22T17:44:36.754Z,2.10
2022-11-22T17:47:04.189Z,2.10
2022-11-22T17:49:31.768Z,2.10
2022-11-22T17:51:59.316Z,2.10
2022-11-22T17:54:26.674Z,2.10
2022-11-22T17:56:54.084Z,2.00
2022-11-22T17:59:21.257Z,2.00
2022-11-22T18:01:49.540Z,2.10
2022-11-22T18:04:17.555Z,2.10
2022-11-22T18:06:47.618Z,2.10
2022-11-22T18:09:14.802Z,2.10
2022-11-22T18:11:44.685Z,2.10
2022-11-22T18:14:12.175Z,2.10
2022-11-22T18:16:43.822Z,2.10
2022-11-22T18:19:13.739Z,2.10
2022-11-22T18:21:41.298Z,2.10
2022-11-22T18:24:08.794Z,2.10
2022-11-22T18:26:40.598Z,2.10
2022-11-22T18:31:59.327Z,2.10
2022-11-22T18:34:27.874Z,2.10
2022-11-22T18:37:02.089Z,2.10
2022-11-22T18:39:37.953Z,2.10
2022-11-22T18:42:08.539Z,2.10
2022-11-22T18:44:35.767Z,2.20
2022-11-22T18:47:03.212Z,2.20
2022-11-22T18:49:31.027Z,2.20
2022-11-22T18:52:01.435Z,2.10
2022-11-22T18:54:29.253Z,2.00
2022-11-22T18:56:57.236Z,2.00
2022-11-22T18:59:25.108Z,1.90
2022-11-22T19:01:55.694Z,2.00
2022-11-22T19:04:23.048Z,2.00
2022-11-22T19:06:51.524Z,2.00
2022-11-22T19:09:19.792Z,2.00
2022-11-22T19:11:48.026Z,2.00
2022-11-22T19:14:15.500Z,2.00
2022-11-22T19:16:44.125Z,2.00
2022-11-22T19:19:13.471Z,2.10
2022-11-22T19:21:43.412Z,2.10
2022-11-22T19:24:10.797Z,2.10
2022-11-22T19:26:38.493Z,2.00
2022-11-22T19:29:05.756Z,2.00
2022-11-22T19:31:33.937Z,2.00
2022-11-22T19:34:04.347Z,2.00
2022-11-22T19:36:34.536Z,2.00
2022-11-22T19:39:05.695Z,2.00
2022-11-22T19:41:35.841Z,2.00
2022-11-22T19:44:04.074Z,2.00
2022-11-22T19:46:31.697Z,2.00
2022-11-22T19:49:01.356Z,2.00
2022-11-22T19:51:31.481Z,1.90
2022-11-22T19:54:02.966Z,2.00
2022-11-22T19:56:35.957Z,2.00
2022-11-22T19:59:05.547Z,2.10
2022-11-22T20:01:35.649Z,2.10
2022-11-22T20:04:06.146Z,2.10
2022-11-22T20:06:36.009Z,2.10
2022-11-22T20:09:11.815Z,2.10
2022-11-22T20:11:41.265Z,2.10
2022-11-22T20:14:10.110Z,2.10
2022-11-22T20:16:42.839Z,2.10
2022-11-22T20:19:12.589Z,2.10
2022-11-22T20:21:40.875Z,2.20
2022-11-22T20:24:09.462Z,2.20
2022-11-22T20:26:37.263Z,2.10
2022-11-22T20:29:11.721Z,2.20
2022-11-22T20:31:41.565Z,2.20
2022-11-22T20:34:10.124Z,2.10
2022-11-22T20:36:39.395Z,2.20
2022-11-22T20:39:10.595Z,2.10
2022-11-22T20:41:39.686Z,2.10
2022-11-22T20:44:07.653Z,2.10
2022-11-22T20:46:38.478Z,2.10
2022-11-22T20:49:09.104Z,2.10
2022-11-22T20:51:42.963Z,2.10
2022-11-22T20:54:10.807Z,2.10
2022-11-22T20:56:39.253Z,2.10
2022-11-22T20:59:07.002Z,2.10
2022-11-22T21:01:35.019Z,2.00
2022-11-22T21:04:02.612Z,2.10
2022-11-22T21:06:32.905Z,2.10
2022-11-22T21:09:00.545Z,2.10
2022-11-22T21:11:31.470Z,2.10
2022-11-22T21:13:59.254Z,2.00
2022-11-22T21:16:31.243Z,2.10
2022-11-22T21:19:05.231Z,2.20
2022-11-22T21:21:36.041Z,2.10
2022-11-22T21:24:04.848Z,2.10
2022-11-22T21:26:32.816Z,2.10
2022-11-22T21:29:00.869Z,2.10
2022-11-22T21:31:28.564Z,2.10
2022-11-22T21:33:55.865Z,2.10
2022-11-22T21:36:23.523Z,2.00
2022-11-22T21:38:53.612Z,2.10
2022-11-22T21:44:10.760Z,2.00
2022-11-22T21:46:39.042Z,2.00
2022-11-22T21:49:07.000Z,2.10
2022-11-22T21:51:34.972Z,2.10
2022-11-22T21:54:03.092Z,2.10
2022-11-22T21:56:32.846Z,2.10
2022-11-22T21:59:00.215Z,2.10
2022-11-22T22:01:28.970Z,2.10
2022-11-22T22:03:56.457Z,2.10
2022-11-22T22:06:25.656Z,2.10
2022-11-22T22:08:58.312Z,2.10
2022-11-22T22:11:26.979Z,2.00
2022-11-22T22:13:55.786Z,2.00
2022-11-22T22:16:24.149Z,2.00
2022-11-22T22:18:51.927Z,2.00
2022-11-22T22:21:19.923Z,2.10
2022-11-22T22:23:47.475Z,2.00
2022-11-22T22:26:18.019Z,2.10
2022-11-22T22:28:46.080Z,2.10
2022-11-22T22:31:23.156Z,2.10
2022-11-22T22:33:57.079Z,2.00
2022-11-22T22:36:27.692Z,2.00
2022-11-22T22:38:57.078Z,2.00
2022-11-22T22:41:24.740Z,2.00
2022-11-22T22:43:54.790Z,2.10
2022-11-22T22:46:24.979Z,2.10
2022-11-22T22:48:55.043Z,2.00
2022-11-22T22:51:31.882Z,2.00
2022-11-22T22:54:00.857Z,2.00
2022-11-22T22:56:30.676Z,2.00
2022-11-22T22:59:01.126Z,2.00
2022-11-22T23:01:30.561Z,2.00
2022-11-22T23:04:00.861Z,2.00
2022-11-22T23:06:35.480Z,2.00
2022-11-22T23:09:05.201Z,2.00
2022-11-22T23:11:52.476Z,2.00
2022-11-22T23:14:22.496Z,2.00
2022-11-22T23:16:54.518Z,2.10
2022-11-22T23:19:26.044Z,2.10
2022-11-22T23:21:54.748Z,2.00
2022-11-22T23:24:22.274Z,2.00
2022-11-22T23:26:49.763Z,2.00
2022-11-22T23:29:17.125Z,2.00
2022-11-22T23:31:44.658Z,2.00
2022-11-22T23:34:12.144Z,2.00
2022-11-22T23:36:41.200Z,2.00
2022-11-22T23:39:10.037Z,2.00
2022-11-22T23:41:37.702Z,2.00
2022-11-22T23:44:05.053Z,2.00
2022-11-22T23:46:32.664Z,2.00
2022-11-22T23:49:01.404Z,2.00
2022-11-22T23:51:30.929Z,2.00
2022-11-22T23:54:04.336Z,1.90
2022-11-22T23:56:34.595Z,1.90
2022-11-22T23:59:06.811Z,1.90
